createdAt,value
2023-07-04T00:00:17.244Z,55.67
2023-07-04T00:03:41.916Z,55.76
2023-07-04T00:06:45.190Z,55.82
2023-07-04T00:09:48.378Z,55.79
2023-07-04T00:12:51.302Z,55.82
2023-07-04T00:15:57.280Z,55.90
2023-07-04T00:19:00.380Z,55.96
2023-07-04T00:22:05.379Z,55.75
2023-07-04T00:25:09.139Z,55.70
2023-07-04T00:28:12.056Z,55.75
2023-07-04T00:31:21.364Z,55.88
2023-07-04T00:34:25.039Z,55.87
2023-07-04T00:37:30.428Z,55.90
2023-07-04T00:40:33.448Z,55.92
2023-07-04T00:43:47.979Z,56.12
2023-07-04T00:46:57.821Z,56.00
2023-07-04T00:50:08.722Z,55.93
2023-07-04T00:53:13.924Z,56.09
2023-07-04T00:56:17.308Z,56.35
2023-07-04T00:59:21.520Z,56.28
2023-07-04T01:02:27.514Z,56.34
2023-07-04T01:05:51.663Z,56.45
2023-07-04T01:09:02.495Z,56.38
2023-07-04T01:12:06.618Z,56.42
2023-07-04T01:15:10.648Z,56.60
2023-07-04T01:18:15.456Z,56.65
2023-07-04T01:21:23.528Z,56.64
2023-07-04T01:24:40.383Z,56.47
2023-07-04T01:27:45.222Z,56.54
2023-07-04T01:30:49.023Z,56.85
2023-07-04T01:33:53.276Z,56.81
2023-07-04T01:36:56.415Z,56.83
2023-07-04T01:40:01.560Z,56.86
2023-07-04T01:43:07.171Z,56.87
2023-07-04T01:46:10.616Z,56.89
2023-07-04T01:49:14.002Z,56.87
2023-07-04T01:52:17.027Z,56.93
2023-07-04T01:55:20.227Z,56.93
2023-07-04T01:58:23.267Z,56.83
2023-07-04T02:01:26.408Z,56.83
2023-07-04T02:04:29.415Z,56.87
2023-07-04T02:07:32.750Z,56.97
2023-07-04T02:10:35.872Z,57.13
2023-07-04T02:13:39.782Z,56.98
2023-07-04T02:16:42.795Z,57.14
2023-07-04T02:19:46.039Z,57.20
2023-07-04T02:22:49.069Z,57.16
2023-07-04T02:25:54.227Z,57.09
2023-07-04T02:28:57.140Z,56.95
2023-07-04T02:32:00.115Z,57.07
2023-07-04T02:35:03.895Z,57.16
2023-07-04T02:38:07.263Z,57.29
2023-07-04T02:41:11.237Z,57.46
2023-07-04T02:44:14.324Z,57.31
2023-07-04T02:47:19.615Z,57.48
2023-07-04T02:50:22.921Z,57.56
2023-07-04T02:53:26.037Z,57.42
2023-07-04T02:56:29.739Z,57.30
2023-07-04T02:59:32.823Z,57.42
2023-07-04T03:02:36.783Z,57.37
2023-07-04T03:05:48.646Z,57.33
2023-07-04T03:08:53.084Z,57.35
2023-07-04T03:11:56.479Z,57.37
2023-07-04T03:14:59.862Z,57.68
2023-07-04T03:18:06.193Z,57.50
2023-07-04T03:21:12.226Z,57.75
2023-07-04T03:24:15.265Z,57.71
2023-07-04T03:27:18.382Z,57.46
2023-07-04T03:30:21.613Z,57.65
2023-07-04T03:33:26.644Z,57.58
2023-07-04T03:36:29.734Z,57.67
2023-07-04T03:39:32.696Z,57.52
2023-07-04T03:42:37.265Z,57.59
2023-07-04T03:45:40.287Z,57.81
2023-07-04T03:48:44.187Z,57.80
2023-07-04T03:51:48.014Z,58.06
2023-07-04T03:54:51.274Z,58.10
2023-07-04T03:57:54.243Z,58.19
2023-07-04T04:00:57.215Z,58.29
2023-07-04T04:04:00.308Z,58.28
2023-07-04T04:07:03.771Z,58.65
2023-07-04T04:10:07.458Z,58.63
2023-07-04T04:13:11.280Z,58.81
2023-07-04T04:16:14.463Z,58.91
2023-07-04T04:19:17.537Z,59.12
2023-07-04T04:22:20.550Z,59.09
2023-07-04T04:25:23.494Z,59.03
2023-07-04T04:28:26.402Z,59.13
2023-07-04T04:31:30.240Z,59.14
2023-07-04T04:34:33.287Z,59.35
2023-07-04T04:37:36.485Z,59.25
2023-07-04T04:40:39.850Z,59.43
2023-07-04T04:43:42.828Z,59.36
2023-07-04T04:46:50.085Z,59.47
2023-07-04T04:49:53.195Z,59.32
2023-07-04T04:52:57.256Z,59.12
2023-07-04T04:56:01.632Z,59.20
2023-07-04T04:59:04.544Z,59.18
2023-07-04T05:02:07.765Z,59.21
2023-07-04T05:05:10.823Z,58.86
2023-07-04T05:08:13.977Z,58.98
2023-07-04T05:11:17.947Z,59.03
2023-07-04T05:14:21.417Z,58.87
2023-07-04T05:17:25.334Z,58.94
2023-07-04T05:20:28.588Z,58.87
2023-07-04T05:23:32.699Z,58.92
2023-07-04T05:26:36.436Z,59.20
2023-07-04T05:29:40.064Z,59.32
2023-07-04T05:32:45.972Z,59.35
2023-07-04T05:35:49.412Z,59.20
2023-07-04T05:39:02.310Z,59.19
2023-07-04T05:42:08.198Z,58.78
2023-07-04T05:45:11.436Z,58.51
2023-07-04T05:48:14.511Z,58.34
2023-07-04T05:51:19.894Z,58.10
2023-07-04T05:54:22.872Z,58.14
2023-07-04T05:57:31.649Z,58.10
2023-07-04T06:00:36.145Z,57.97
2023-07-04T06:03:40.565Z,58.13
2023-07-04T06:06:49.668Z,58.01
2023-07-04T06:09:52.683Z,57.85
2023-07-04T06:12:55.658Z,57.70
2023-07-04T06:16:00.405Z,57.55
2023-07-04T06:19:03.759Z,57.06
2023-07-04T06:22:08.531Z,56.99
2023-07-04T06:25:11.433Z,56.85
2023-07-04T06:28:14.413Z,56.46
2023-07-04T06:31:18.465Z,56.13
2023-07-04T06:34:21.485Z,55.76
2023-07-04T06:37:24.451Z,55.60
2023-07-04T06:40:27.440Z,55.31
2023-07-04T06:43:32.829Z,55.06
2023-07-04T06:46:35.837Z,55.03
2023-07-04T06:49:38.842Z,54.82
2023-07-04T06:52:41.783Z,54.57
2023-07-04T06:55:44.958Z,54.54
2023-07-04T06:58:51.737Z,54.43
2023-07-04T07:01:54.985Z,54.24
2023-07-04T07:04:58.146Z,54.29
2023-07-04T07:08:01.128Z,54.50
2023-07-04T07:11:11.229Z,54.47
2023-07-04T07:14:14.382Z,54.66
2023-07-04T07:17:17.745Z,54.60
2023-07-04T07:20:20.785Z,54.35
2023-07-04T07:23:23.807Z,54.66
2023-07-04T07:26:29.542Z,54.84
2023-07-04T07:29:33.358Z,54.61
2023-07-04T07:32:36.480Z,54.53
2023-07-04T07:35:39.686Z,54.14
2023-07-04T07:38:43.136Z,54.14
2023-07-04T07:41:48.739Z,53.41
2023-07-04T07:44:51.871Z,52.87
2023-07-04T07:47:57.293Z,52.69
2023-07-04T07:51:00.556Z,52.19
2023-07-04T07:54:04.185Z,52.01
2023-07-04T07:57:07.880Z,51.64
2023-07-04T08:00:13.583Z,51.03
2023-07-04T08:03:16.720Z,50.99
2023-07-04T08:06:36.966Z,50.64
2023-07-04T08:09:40.200Z,49.97
2023-07-04T08:12:43.305Z,49.66
2023-07-04T08:15:56.130Z,49.62
2023-07-04T08:19:00.766Z,49.35
2023-07-04T08:22:03.918Z,49.21
2023-07-04T08:25:07.145Z,48.92
2023-07-04T08:28:10.243Z,48.90
2023-07-04T08:31:13.591Z,48.80
2023-07-04T08:34:16.750Z,48.41
2023-07-04T08:37:20.090Z,47.70
2023-07-04T08:40:30.528Z,47.24
2023-07-04T08:43:46.316Z,47.02
2023-07-04T08:46:54.637Z,46.51
2023-07-04T08:50:11.019Z,46.16
2023-07-04T08:53:24.017Z,46.27
2023-07-04T08:56:37.535Z,46.10
2023-07-04T08:59:48.166Z,45.95
2023-07-04T09:03:14.191Z,45.72
2023-07-04T09:06:31.880Z,44.44
2023-07-04T09:09:55.666Z,44.63
2023-07-04T09:13:01.416Z,44.49
2023-07-04T09:16:19.773Z,44.28
2023-07-04T09:19:23.082Z,43.94
2023-07-04T09:22:26.213Z,43.50
2023-07-04T09:25:29.746Z,43.62
2023-07-04T09:28:37.686Z,43.40
2023-07-04T09:31:42.558Z,43.37
2023-07-04T09:35:12.471Z,43.16
2023-07-04T09:38:15.799Z,42.92
2023-07-04T09:41:19.832Z,42.64
2023-07-04T09:44:37.428Z,42.48
2023-07-04T09:47:46.093Z,42.44
2023-07-04T09:50:49.174Z,42.25
2023-07-04T09:54:08.696Z,41.74
2023-07-04T09:57:24.113Z,41.56
2023-07-04T10:00:28.015Z,41.96
2023-07-04T10:03:31.213Z,41.43
2023-07-04T10:06:36.524Z,41.23
2023-07-04T10:09:57.511Z,41.17
2023-07-04T10:13:01.122Z,41.19
2023-07-04T10:16:19.443Z,41.20
2023-07-04T10:19:24.026Z,41.10
2023-07-04T10:22:36.442Z,41.02
2023-07-04T10:25:39.647Z,40.73
2023-07-04T10:28:44.116Z,40.60
2023-07-04T10:31:49.207Z,40.24
2023-07-04T10:34:53.388Z,40.09
2023-07-04T10:38:04.582Z,40.11
2023-07-04T10:41:36.103Z,39.81
2023-07-04T10:44:42.374Z,39.90
2023-07-04T10:47:48.904Z,39.89
2023-07-04T10:51:02.082Z,39.71
2023-07-04T10:54:09.183Z,39.33
2023-07-04T10:57:57.828Z,39.40
2023-07-04T11:01:08.477Z,39.62
2023-07-04T11:04:26.499Z,39.28
2023-07-04T11:07:30.130Z,39.37
2023-07-04T11:10:39.330Z,38.81
2023-07-04T11:13:54.016Z,38.60
2023-07-04T11:17:05.247Z,38.60
2023-07-04T11:20:16.188Z,38.78
2023-07-04T11:23:22.169Z,38.26
2023-07-04T11:26:51.308Z,38.22
2023-07-04T11:29:59.820Z,38.69
2023-07-04T11:33:03.420Z,38.64
2023-07-04T11:36:15.591Z,38.25
2023-07-04T11:39:38.629Z,37.40
2023-07-04T11:42:45.717Z,37.37
2023-07-04T11:45:50.232Z,37.26
2023-07-04T11:48:55.555Z,37.26
2023-07-04T11:52:20.651Z,37.57
2023-07-04T11:55:33.706Z,37.28
2023-07-04T11:58:37.038Z,37.42
2023-07-04T12:02:04.864Z,37.51
2023-07-04T12:05:32.523Z,37.56
2023-07-04T12:08:51.609Z,37.31
2023-07-04T12:11:57.481Z,37.06
2023-07-04T12:19:04.600Z,37.38
2023-07-04T12:22:06.860Z,36.91
2023-07-04T12:25:19.544Z,36.77
2023-07-04T12:28:27.504Z,37.17
2023-07-04T12:35:10.856Z,36.76
2023-07-04T12:37:58.859Z,36.65
2023-07-04T12:41:04.776Z,36.58
2023-07-04T12:47:26.241Z,36.39
2023-07-04T12:50:31.501Z,36.71
2023-07-04T12:53:35.197Z,37.22
2023-07-04T12:56:42.415Z,37.26
2023-07-04T12:59:49.443Z,37.40
2023-07-04T13:02:52.746Z,37.61
2023-07-04T13:05:56.262Z,38.29
2023-07-04T13:09:00.430Z,38.65
2023-07-04T13:12:03.547Z,38.99
2023-07-04T13:15:12.832Z,39.38
2023-07-04T13:18:15.876Z,39.60
2023-07-04T13:21:27.454Z,39.97
2023-07-04T13:27:41.549Z,40.28
2023-07-04T13:32:58.853Z,40.59
2023-07-04T13:34:10.440Z,41.40
2023-07-04T13:37:13.525Z,42.19
2023-07-04T13:40:16.823Z,42.70
2023-07-04T13:46:25.590Z,42.76
2023-07-04T13:49:28.584Z,42.47
2023-07-04T13:52:33.702Z,42.04
2023-07-04T13:55:38.389Z,42.19
2023-07-04T13:58:41.694Z,42.00
2023-07-04T14:07:56.391Z,41.92
2023-07-04T14:11:08.848Z,41.73
2023-07-04T14:16:35.746Z,41.24
2023-07-04T14:18:31.874Z,41.29
2023-07-04T14:21:00.826Z,41.71
2023-07-04T14:24:07.163Z,41.76
2023-07-04T14:27:10.562Z,41.42
2023-07-04T14:30:14.116Z,41.00
2023-07-04T14:33:17.239Z,40.75
2023-07-04T14:36:20.392Z,41.09
2023-07-04T14:39:26.184Z,40.70
2023-07-04T14:42:31.746Z,40.71
2023-07-04T14:45:35.423Z,40.71
2023-07-04T14:48:39.308Z,41.03
2023-07-04T14:51:45.700Z,40.71
2023-07-04T14:54:48.882Z,40.39
2023-07-04T14:57:51.835Z,40.34
2023-07-04T15:01:01.407Z,40.47
2023-07-04T15:04:05.459Z,40.84
2023-07-04T15:07:08.487Z,40.90
2023-07-04T15:10:11.543Z,40.56
2023-07-04T15:13:14.698Z,40.50
2023-07-04T15:16:18.817Z,40.33
2023-07-04T15:19:25.996Z,40.26
2023-07-04T15:22:29.046Z,40.10
2023-07-04T15:25:32.100Z,39.98
2023-07-04T15:28:38.649Z,40.19
2023-07-04T15:31:41.739Z,40.31
2023-07-04T15:34:44.927Z,40.49
2023-07-04T15:37:48.031Z,40.69
2023-07-04T15:40:53.867Z,40.64
2023-07-04T15:43:57.000Z,40.76
2023-07-04T15:47:00.453Z,40.80
2023-07-04T15:50:03.656Z,40.95
2023-07-04T15:53:06.656Z,40.89
2023-07-04T15:56:12.949Z,41.07
2023-07-04T15:59:16.600Z,41.21
2023-07-04T16:02:19.654Z,41.53
2023-07-04T16:05:22.950Z,41.52
2023-07-04T16:08:27.540Z,41.72
2023-07-04T16:11:30.582Z,41.67
2023-07-04T16:14:33.524Z,41.82
2023-07-04T16:17:37.772Z,41.95
2023-07-04T16:20:45.639Z,41.95
2023-07-04T16:23:48.685Z,42.12
2023-07-04T16:26:51.925Z,42.20
2023-07-04T16:29:55.063Z,42.55
2023-07-04T16:32:58.072Z,42.66
2023-07-04T16:36:02.541Z,42.65
2023-07-04T16:39:05.512Z,43.00
2023-07-04T16:42:08.498Z,43.16
2023-07-04T16:45:11.526Z,43.67
2023-07-04T16:48:14.867Z,43.83
2023-07-04T16:51:17.805Z,44.14
2023-07-04T16:54:20.755Z,44.38
2023-07-04T16:57:23.744Z,44.24
2023-07-04T17:00:26.829Z,44.38
2023-07-04T17:03:31.505Z,44.30
2023-07-04T17:06:34.535Z,44.43
2023-07-04T17:09:37.516Z,44.84
2023-07-04T17:12:40.448Z,45.04
2023-07-04T17:15:43.500Z,45.14
2023-07-04T17:18:46.532Z,45.19
2023-07-04T17:21:49.891Z,45.51
2023-07-04T17:25:06.944Z,45.71
2023-07-04T17:28:16.403Z,46.14
2023-07-04T17:31:20.050Z,45.87
2023-07-04T17:34:24.495Z,46.10
2023-07-04T17:37:28.391Z,46.22
2023-07-04T17:40:32.432Z,46.72
2023-07-04T17:43:36.748Z,46.82
2023-07-04T17:46:40.023Z,46.91
2023-07-04T17:49:43.066Z,47.50
2023-07-04T17:52:47.242Z,47.93
2023-07-04T17:55:50.553Z,48.05
2023-07-04T17:58:54.946Z,48.35
2023-07-04T18:01:57.939Z,48.76
2023-07-04T18:05:00.921Z,48.83
2023-07-04T18:08:06.572Z,49.02
2023-07-04T18:11:22.752Z,49.05
2023-07-04T18:14:27.273Z,49.23
2023-07-04T18:17:31.291Z,49.68
2023-07-04T18:20:34.437Z,49.70
2023-07-04T18:23:37.710Z,49.97
2023-07-04T18:26:40.746Z,49.96
2023-07-04T18:29:43.708Z,50.04
2023-07-04T18:32:46.711Z,50.25
2023-07-04T18:35:50.381Z,50.46
2023-07-04T18:38:53.670Z,50.48
2023-07-04T18:41:56.703Z,50.68
2023-07-04T18:44:59.595Z,50.94
2023-07-04T18:48:02.696Z,50.90
2023-07-04T18:51:20.534Z,51.06
2023-07-04T18:57:29.306Z,51.22
2023-07-04T19:00:32.288Z,51.63
2023-07-04T19:03:35.754Z,51.55
2023-07-04T19:06:41.067Z,51.59
2023-07-04T19:09:44.242Z,51.92
2023-07-04T19:12:47.276Z,51.89
2023-07-04T19:15:59.749Z,52.01
2023-07-04T19:19:02.733Z,52.41
2023-07-04T19:22:08.444Z,52.41
2023-07-04T19:25:11.539Z,52.55
2023-07-04T19:28:17.125Z,52.68
2023-07-04T19:31:20.384Z,52.94
2023-07-04T19:34:24.956Z,53.07
2023-07-04T19:37:27.949Z,52.97
2023-07-04T19:40:30.872Z,52.97
2023-07-04T19:43:33.892Z,53.13
2023-07-04T19:46:37.086Z,53.46
2023-07-04T19:49:40.635Z,53.53
2023-07-04T19:52:43.727Z,53.78
2023-07-04T19:55:46.607Z,53.99
2023-07-04T19:58:51.194Z,53.98
2023-07-04T20:01:54.221Z,54.39
2023-07-04T20:04:57.324Z,54.31
2023-07-04T20:08:01.357Z,54.62
2023-07-04T20:11:04.691Z,54.62
2023-07-04T20:14:08.593Z,54.63
2023-07-04T20:17:11.557Z,54.52
2023-07-04T20:20:14.622Z,54.92
2023-07-04T20:23:17.789Z,54.81
2023-07-04T20:26:20.970Z,55.02
2023-07-04T20:29:24.102Z,55.08
2023-07-04T20:32:27.122Z,55.26
2023-07-04T20:35:30.873Z,55.65
2023-07-04T20:38:36.225Z,55.73
2023-07-04T20:41:39.142Z,55.67
2023-07-04T20:44:42.171Z,55.84
2023-07-04T20:47:45.279Z,55.89
2023-07-04T20:50:50.114Z,56.10
2023-07-04T20:53:53.385Z,55.93
2023-07-04T20:56:56.369Z,56.24
2023-07-04T20:59:59.368Z,56.26
2023-07-04T21:03:02.338Z,56.33
2023-07-04T21:06:06.601Z,56.34
2023-07-04T21:09:20.077Z,56.54
2023-07-04T21:12:23.264Z,56.67
2023-07-04T21:15:28.802Z,56.66
2023-07-04T21:18:33.662Z,56.68
2023-07-04T21:21:37.164Z,56.80
2023-07-04T21:24:40.076Z,56.66
2023-07-04T21:27:43.809Z,56.80
2023-07-04T21:30:49.274Z,56.73
2023-07-04T21:33:55.559Z,56.78
2023-07-04T21:36:58.535Z,56.79
2023-07-04T21:40:01.678Z,56.95
2023-07-04T21:43:06.241Z,56.96
2023-07-04T21:46:10.832Z,57.12
2023-07-04T21:49:13.774Z,57.12
2023-07-04T21:52:17.369Z,57.20
2023-07-04T21:55:20.373Z,57.30
2023-07-04T21:58:24.261Z,57.28
2023-07-04T22:01:27.338Z,57.33
2023-07-04T22:04:30.798Z,57.25
2023-07-04T22:07:33.839Z,57.46
2023-07-04T22:10:36.838Z,57.36
2023-07-04T22:13:43.446Z,57.31
2023-07-04T22:16:46.482Z,57.39
2023-07-04T22:19:49.609Z,57.36
2023-07-04T22:22:52.689Z,57.56
2023-07-04T22:25:56.446Z,57.66
2023-07-04T22:28:59.701Z,57.54
2023-07-04T22:32:03.120Z,57.51
2023-07-04T22:35:07.543Z,57.66
2023-07-04T22:38:10.531Z,57.72
2023-07-04T22:41:13.478Z,57.86
2023-07-04T22:44:17.271Z,57.67
2023-07-04T22:47:20.246Z,57.66
2023-07-04T22:50:23.287Z,57.90
2023-07-04T22:53:26.696Z,57.93
2023-07-04T22:56:29.686Z,57.99
2023-07-04T22:59:32.587Z,58.05
2023-07-04T23:02:35.836Z,58.17
2023-07-04T23:05:42.155Z,58.46
2023-07-04T23:08:45.298Z,58.34
2023-07-04T23:11:48.227Z,58.29
2023-07-04T23:14:51.184Z,58.24
2023-07-04T23:17:55.503Z,58.26
2023-07-04T23:20:58.562Z,58.37
2023-07-04T23:24:02.084Z,58.51
2023-07-04T23:27:05.683Z,58.38
2023-07-04T23:30:09.083Z,58.57
2023-07-04T23:33:11.984Z,58.63
2023-07-04T23:36:17.938Z,58.54
2023-07-04T23:39:20.866Z,58.74
2023-07-04T23:42:23.964Z,58.70
2023-07-04T23:45:27.073Z,58.73
2023-07-04T23:48:30.230Z,58.67
2023-07-04T23:51:33.143Z,58.80
2023-07-04T23:54:36.090Z,58.81
2023-07-04T23:57:39.012Z,58.86
